Time;durP1;ratioP1;P1;durP2;ratioP2;P2;SDS_P1;SDS_P2;PMS_P1;PMS_P2;Temp;Humidity;BMP_temperature;BMP_pressure;BME280_temperature;BME280_humidity;BME280_pressure;Samples;Min_cycle;Max_cycle;Signal;HPM_P1;HPM_P2
2022/10/25 00:02:24;;;;;;;0.70;0.60;;;11.70;99.90;;;;;;6294049;22;20151;-89
2022/10/25 00:04:50;;;;;;;2.33;0.80;;;;;;;;;;6288720;22;20167;-88
2022/10/25 00:07:16;;;;;;;3.70;1.23;;;;;;;;;;6283391;22;20159;-89
2022/10/25 00:09:44;;;;;;;7.27;1.70;;;12.00;99.90;;;;;;6310237;22;20158;-87
2022/10/25 00:12:13;;;;;;;2.58;0.70;;;;;;;;;;6283050;22;20401;-89
2022/10/25 00:14:39;;;;;;;1.65;0.70;;;;;;;;;;6281889;22;20455;-88
2022/10/25 00:17:05;;;;;;;1.90;0.90;;;;;;;;;;6280794;22;20154;-88
2022/10/25 00:19:31;;;;;;;8.25;1.40;;;;;;;;;;6280910;22;20156;-88
2022/10/25 00:22:00;;;;;;;1.05;0.77;;;12.30;99.90;;;;;;6279461;22;20223;-88
2022/10/25 00:24:26;;;;;;;2.28;0.93;;;;;;;;;;6280922;22;20182;-88
2022/10/25 00:26:55;;;;;;;6.00;1.10;;;;;;;;;;6278603;22;20220;-90
2022/10/25 00:29:21;;;;;;;2.42;1.33;;;;;;;;;;6281291;22;20234;-88
2022/10/25 00:31:49;;;;;;;1.70;0.60;;;12.50;99.90;;;;;;6279390;22;20178;-88
2022/10/25 00:34:15;;;;;;;8.25;0.90;;;;;;;;;;6284120;22;20421;-88
2022/10/25 00:36:41;;;;;;;4.03;0.67;;;;;;;;;;6285445;22;20420;-89
2022/10/25 00:39:07;;;;;;;7.10;0.90;;;;;;;;;;6284811;22;20443;-89
2022/10/25 00:41:34;;;;;;;12.35;1.30;;;;;;;;;;6283824;22;20429;-88
2022/10/25 00:44:37;;;;;;;1.10;0.70;;;12.30;99.90;;;;;;6283834;22;20155;-89
2022/10/25 00:47:22;;;;;;;5.28;1.13;;;12.30;99.90;;;;;;6283949;22;20208;-88
2022/10/25 00:50:15;;;;;;;2.72;0.90;;;12.30;99.90;;;;;;6309875;22;20170;-89
2022/10/25 00:52:44;;;;;;;6.80;0.70;;;12.10;99.90;;;;;;6313183;22;20167;-89
2022/10/25 00:55:18;;;;;;;1.10;0.70;;;12.10;99.90;;;;;;6283407;22;20267;-89
2022/10/25 00:58:11;;;;;;;1.58;0.90;;;12.00;99.90;;;;;;6279196;22;20151;-89
2022/10/25 01:00:38;;;;;;;4.53;0.75;;;;;;;;;;6282049;22;20155;-88
2022/10/25 01:03:07;;;;;;;3.42;1.10;;;11.90;99.90;;;;;;6280812;22;20888;-88
2022/10/25 01:05:37;;;;;;;1.05;0.73;;;11.90;99.90;;;;;;6280892;22;20591;-89
2022/10/25 01:08:04;;;;;;;3.33;0.93;;;11.90;99.90;;;;;;6283888;22;20154;-89
2022/10/25 01:10:31;;;;;;;0.93;0.70;;;;;;;;;;6281065;22;20234;-89
2022/10/25 01:12:57;;;;;;;8.15;1.25;;;;;;;;;;6280127;22;20502;-90
2022/10/25 01:15:32;;;;;;;1.58;0.80;;;11.90;99.90;;;;;;6283974;22;20179;-89
2022/10/25 01:18:17;;;;;;;2.58;0.95;;;11.80;99.90;;;;;;6329285;22;20149;-90
2022/10/25 01:21:22;;;;;;;0.90;0.60;;;11.90;99.90;;;;;;6291696;22;20577;-90
2022/10/25 01:24:07;;;;;;;3.70;0.85;;;11.80;99.90;;;;;;6295127;22;20131;-90
2022/10/25 01:27:04;;;;;;;3.88;1.20;;;11.80;99.90;;;;;;6301510;22;20204;-89
2022/10/25 01:30:05;;;;;;;3.10;0.70;;;11.80;99.90;;;;;;6288832;22;20169;-89
2022/10/25 01:32:31;;;;;;;3.45;0.70;;;;;;;;;;6215737;22;20170;-89
2022/10/25 01:35:02;;;;;;;2.87;0.80;;;11.80;99.90;;;;;;6283492;22;20182;-88
2022/10/25 01:37:53;;;;;;;6.78;1.15;;;11.80;99.90;;;;;;6283926;22;20416;-90
2022/10/25 01:40:43;;;;;;;1.10;0.80;;;11.80;99.90;;;;;;6282916;22;20660;-89
2022/10/25 01:43:32;;;;;;;7.85;1.20;;;11.70;99.90;;;;;;6251080;22;20151;-89
2022/10/25 01:46:26;;;;;;;1.38;0.65;;;11.60;99.90;;;;;;6305127;22;20136;-91
2022/10/25 01:49:02;;;;;;;4.07;1.20;;;11.70;99.90;;;;;;6306011;22;20148;-90
2022/10/25 01:51:28;;;;;;;3.97;1.13;;;;;;;;;;6293158;22;20170;-89
2022/10/25 01:53:54;;;;;;;3.35;1.40;;;;;;;;;;6289550;22;20186;-90
2022/10/25 01:56:27;;;;;;;2.65;0.80;;;11.70;99.90;;;;;;6286148;22;20155;-91
2022/10/25 01:59:23;;;;;;;3.30;1.10;;;11.70;99.90;;;;;;6284159;22;20146;-88
2022/10/25 02:02:25;;;;;;;2.25;0.60;;;11.70;99.90;;;;;;6284159;22;20480;-89
2022/10/25 02:05:16;;;;;;;2.35;0.80;;;11.70;99.90;;;;;;6283536;22;20150;-90
2022/10/25 02:07:50;;;;;;;0.88;0.80;;;11.70;99.90;;;;;;6286717;22;20585;-89
2022/10/25 02:10:28;;;;;;;4.68;0.70;;;11.70;99.90;;;;;;6286026;22;20139;-88
2022/10/25 02:12:54;;;;;;;3.53;0.70;;;;;;;;;;6285073;22;20163;-89
2022/10/25 02:15:48;;;;;;;2.00;0.80;;;11.40;99.90;;;;;;6283503;22;20191;-88
2022/10/25 02:18:23;;;;;;;2.40;0.80;;;11.60;99.90;;;;;;6244824;22;20374;-89
2022/10/25 02:20:56;;;;;;;6.07;1.48;;;11.50;99.90;;;;;;6281792;22;20224;-88
2022/10/25 02:23:22;;;;;;;6.22;1.50;;;11.50;99.90;;;;;;6283556;22;20586;-88
2022/10/25 02:25:50;;;;;;;8.77;1.23;;;11.50;99.90;;;;;;6306705;22;20143;-89
2022/10/25 02:28:28;;;;;;;2.65;1.30;;;11.50;99.90;;;;;;6280672;22;20232;-89
2022/10/25 02:30:58;;;;;;;4.10;1.50;;;11.70;99.90;;;;;;6280081;22;20197;-89
2022/10/25 02:33:27;;;;;;;5.15;0.95;;;;;;;;;;6282227;22;20176;-89
2022/10/25 02:36:15;;;;;;;6.40;1.30;;;11.80;99.90;;;;;;6282143;22;20143;-88
2022/10/25 02:38:45;;;;;;;3.05;1.30;;;11.90;99.90;;;;;;6310725;22;20132;-89
2022/10/25 02:41:26;;;;;;;1.88;1.00;;;11.90;99.90;;;;;;6285715;22;20224;-88
2022/10/25 02:43:52;;;;;;;1.73;1.13;;;;;;;;;;6313156;22;20182;-88
2022/10/25 02:46:22;;;;;;;7.40;1.10;;;11.80;99.90;;;;;;6300368;22;20156;-90
2022/10/25 02:48:48;;;;;;;3.08;1.20;;;;;;;;;;6299649;22;20151;-90
2022/10/25 02:51:15;;;;;;;2.17;0.73;;;;;;;;;;6288618;22;20175;-89
2022/10/25 02:53:41;;;;;;;1.33;1.10;;;;;;;;;;6287264;22;20175;-88
2022/10/25 02:56:13;;;;;;;2.30;0.80;;;11.30;99.90;;;;;;6285451;22;20150;-90
2022/10/25 02:58:41;;;;;;;2.88;0.90;;;11.10;99.90;;;;;;6285800;22;20167;-89
2022/10/25 03:01:07;;;;;;;3.90;1.13;;;11.20;99.90;;;;;;6284552;22;20171;-89
2022/10/25 03:03:34;;;;;;;4.97;1.00;;;;;;;;;;6286066;22;20159;-90
2022/10/25 03:06:00;;;;;;;5.88;1.15;;;;;;;;;;6285004;22;20194;-89
2022/10/25 03:08:29;;;;;;;3.17;2.05;;;11.20;99.90;;;;;;6286095;22;20155;-89
2022/10/25 03:10:55;;;;;;;2.67;1.35;;;;;;;;;;6285904;22;20209;-90
2022/10/25 03:13:21;;;;;;;6.53;1.15;;;;;;;;;;6312319;22;20360;-89
2022/10/25 03:15:50;;;;;;;12.40;1.75;;;;;;;;;;6283277;22;20183;-88
2022/10/25 03:18:16;;;;;;;4.22;1.10;;;;;;;;;;6284688;22;20159;-90
2022/10/25 03:20:42;;;;;;;7.80;1.33;;;;;;;;;;6281872;22;20163;-90
2022/10/25 03:23:08;;;;;;;4.63;1.38;;;;;;;;;;6282920;22;20182;-89
2022/10/25 03:25:34;;;;;;;4.88;1.00;;;;;;;;;;6283476;22;20144;-89
2022/10/25 03:28:00;;;;;;;2.83;1.27;;;;;;;;;;6284444;22;20193;-90
2022/10/25 03:30:28;;;;;;;1.58;0.80;;;11.20;99.90;;;;;;6284595;22;20778;-89
2022/10/25 03:32:55;;;;;;;4.70;1.55;;;11.20;99.90;;;;;;6283298;22;20593;-89
2022/10/25 03:35:22;;;;;;;4.43;1.20;;;;;;;;;;6284083;22;20259;-88
2022/10/25 03:37:51;;;;;;;2.63;1.30;;;11.40;99.90;;;;;;6312108;22;20151;-88
2022/10/25 03:40:17;;;;;;;8.32;1.98;;;;;;;;;;6283609;22;20234;-88
2022/10/25 03:42:45;;;;;;;17.77;2.38;;;;;;;;;;6283418;22;20174;-91
2022/10/25 03:45:11;;;;;;;3.47;1.00;;;;;;;;;;6284745;22;20605;-90
2022/10/25 03:47:46;;;;;;;7.25;1.88;;;11.60;99.90;;;;;;6285261;22;20155;-88
2022/10/25 03:50:15;;;;;;;3.05;1.42;;;11.70;99.90;;;;;;6284981;22;20170;-88
2022/10/25 03:52:46;;;;;;;6.28;1.38;;;;;;;;;;6283228;22;20170;-88
2022/10/25 03:55:13;;;;;;;9.82;1.73;;;;;;;;;;6283578;22;20999;-91
2022/10/25 03:57:39;;;;;;;5.05;1.60;;;;;;;;;;6285351;22;20158;-87
2022/10/25 04:00:08;;;;;;;2.72;1.20;;;11.90;99.90;;;;;;6284746;22;20157;-88
2022/10/25 04:02:47;;;;;;;7.18;1.30;;;12.00;99.90;;;;;;6283904;22;20222;-89
2022/10/25 04:05:13;;;;;;;5.93;1.40;;;;;;;;;;6280740;22;20155;-88
2022/10/25 04:07:41;;;;;;;3.97;1.33;;;;;;;;;;6281962;22;20186;-88
2022/10/25 04:10:07;;;;;;;6.28;1.70;;;;;;;;;;6282030;22;20155;-87
2022/10/25 04:12:33;;;;;;;2.08;1.10;;;;;;;;;;6281541;22;20175;-90
2022/10/25 04:14:59;;;;;;;3.40;1.10;;;;;;;;;;6289189;22;20206;-90
2022/10/25 04:17:25;;;;;;;6.63;1.93;;;;;;;;;;6305266;22;20408;-90
2022/10/25 04:19:51;;;;;;;13.37;1.57;;;;;;;;;;6288350;22;20384;-91
2022/10/25 04:22:18;;;;;;;7.83;1.87;;;11.80;99.90;;;;;;6297177;22;20389;-91
2022/10/25 04:24:44;;;;;;;4.43;1.40;;;;;;;;;;6285052;22;20421;-88
2022/10/25 04:27:10;;;;;;;2.77;0.90;;;;;;;;;;6293178;22;20140;-92
2022/10/25 04:29:41;;;;;;;6.03;1.50;;;11.50;99.90;;;;;;6333138;22;20384;-90
2022/10/25 04:32:07;;;;;;;5.30;1.20;;;;;;;;;;6298531;22;20406;-90
2022/10/25 04:34:35;;;;;;;7.15;1.65;;;11.20;99.90;;;;;;6290760;22;20189;-89
2022/10/25 04:37:01;;;;;;;8.07;1.60;;;;;;;;;;6287628;22;20147;-88
2022/10/25 04:39:35;;;;;;;1.77;1.40;;;;;;;;;;6284958;22;20205;-89
2022/10/25 04:42:04;;;;;;;3.65;1.25;;;11.10;99.90;;;;;;6307050;22;20377;-89
2022/10/25 04:44:30;;;;;;;9.93;1.48;;;;;;;;;;6309147;22;20178;-88
2022/10/25 04:46:58;;;;;;;4.60;1.27;;;10.80;99.90;;;;;;6309675;22;20165;-90
2022/10/25 04:49:24;;;;;;;11.30;2.33;;;;;;;;;;6276581;22;20385;-90
2022/10/25 04:51:52;;;;;;;11.25;1.90;;;;;;;;;;6242069;22;20203;-89
2022/10/25 04:54:18;;;;;;;4.17;1.93;;;;;;;;;;6249092;22;20181;-87
2022/10/25 04:56:44;;;;;;;5.95;2.17;;;;;;;;;;6244367;22;20367;-88
2022/10/25 04:59:24;;;;;;;5.30;1.17;;;10.70;99.90;;;;;;6271628;22;20194;-88
2022/10/25 05:01:51;;;;;;;6.75;2.00;;;10.70;99.90;;;;;;6240056;22;20403;-88
2022/10/25 05:04:19;;;;;;;11.32;2.13;;;;;;;;;;6243410;22;20181;-89
2022/10/25 05:06:45;;;;;;;2.65;1.50;;;;;;;;;;6245156;22;20152;-89
2022/10/25 05:09:31;;;;;;;9.30;1.53;;;10.40;99.90;;;;;;6239562;22;20556;-88
2022/10/25 05:12:16;;;;;;;;;;;;;;;;;;;;;
2022/10/25 05:14:55;;;;;;;18.55;2.70;;;10.40;99.90;;;;;;6265020;22;20191;-88
2022/10/25 05:17:39;;;;;;;5.70;2.25;;;10.40;99.90;;;;;;6240297;22;20166;-87
2022/10/25 05:20:29;;;;;;;;;;;;;;;;;;;;;
2022/10/25 05:23:04;;;;;;;5.90;2.95;;;;;;;;;;6271341;22;20239;-89
2022/10/25 05:28:26;;;;;;;6.63;1.60;;;;;;;;;;6270059;22;20175;-88
2022/10/25 05:30:55;;;;;;;7.65;2.13;;;10.20;99.90;;;;;;6243539;22;20195;-89
2022/10/25 05:33:35;;;;;;;8.32;1.90;;;10.20;99.90;;;;;;6243366;22;20151;-88
2022/10/25 05:36:21;;;;;;;5.40;1.50;;;10.20;99.90;;;;;;6243996;22;20228;-88
2022/10/25 05:38:47;;;;;;;3.72;1.60;;;;;;;;;;6243556;22;20202;-89
2022/10/25 05:41:15;;;;;;;10.40;2.38;;;10.20;99.90;;;;;;6246004;22;20179;-89
2022/10/25 05:43:48;;;;;;;3.95;1.85;;;10.10;99.90;;;;;;6244604;22;20178;-89
2022/10/25 05:46:19;;;;;;;7.93;2.67;;;10.20;99.90;;;;;;6245854;22;20204;-86
2022/10/25 05:48:45;;;;;;;6.38;2.25;;;;;;;;;;6240943;23;20168;-86
2022/10/25 05:51:26;;;;;;;5.40;2.40;;;10.10;99.90;;;;;;6187607;23;20177;-86
2022/10/25 05:53:54;;;;;;;6.03;2.38;;;10.10;99.90;;;;;;6187466;23;20185;-85
2022/10/25 05:56:22;;;;;;;26.40;2.72;;;10.20;99.90;;;;;;6188225;23;20232;-86
2022/10/25 05:58:48;;;;;;;8.65;3.00;;;10.20;99.90;;;;;;6187425;23;20203;-87
2022/10/25 06:01:16;;;;;;;8.17;2.90;;;10.20;99.90;;;;;;6185762;23;20744;-85
2022/10/25 06:03:42;;;;;;;4.85;2.25;;;;;;;;;;6213012;23;20568;-86
2022/10/25 06:06:10;;;;;;;11.07;2.33;;;10.30;99.90;;;;;;6186607;23;20156;-87
2022/10/25 06:08:36;;;;;;;4.18;2.08;;;10.40;99.90;;;;;;6185878;23;20784;-87
2022/10/25 06:11:08;;;;;;;3.83;1.65;;;10.30;99.90;;;;;;6186822;23;20181;-86
2022/10/25 06:13:34;;;;;;;4.50;1.67;;;;;;;;;;6185346;23;20153;-86
2022/10/25 06:16:05;;;;;;;6.93;3.35;;;10.50;99.90;;;;;;6186593;23;20161;-85
2022/10/25 06:18:32;;;;;;;13.82;2.55;;;10.60;99.90;;;;;;6215055;23;20149;-87
2022/10/25 06:21:06;;;;;;;5.35;1.75;;;10.70;99.90;;;;;;6187427;23;20196;-86
2022/10/25 06:23:31;;;;;;;7.30;2.90;;;10.80;99.90;;;;;;6188257;23;20843;-84
2022/10/25 06:26:02;;;;;;;11.20;2.97;;;10.80;99.90;;;;;;6188827;23;20149;-84
2022/10/25 06:28:28;;;;;;;8.27;2.53;;;10.70;99.90;;;;;;6216685;23;20141;-86
2022/10/25 06:30:54;;;;;;;12.10;3.15;;;;;;;;;;6190455;23;20259;-83
2022/10/25 06:33:19;;;;;;;6.77;3.57;;;10.80;99.90;;;;;;6183005;23;20153;-86
2022/10/25 06:35:45;;;;;;;11.17;3.20;;;;;;;;;;6186250;23;20447;-85
2022/10/25 06:38:11;;;;;;;12.23;2.40;;;;;;;;;;6186399;23;20180;-85
2022/10/25 06:40:37;;;;;;;3.40;1.60;;;11.00;99.90;;;;;;6186555;23;20435;-84
2022/10/25 06:43:03;;;;;;;3.97;1.83;;;;;;;;;;6213172;23;20348;-86
2022/10/25 06:45:29;;;;;;;9.40;2.40;;;11.80;99.90;;;;;;6187981;23;20243;-84
2022/10/25 06:47:55;;;;;;;10.30;1.60;;;;;;;;;;6211847;23;20376;-84
2022/10/25 06:50:21;;;;;;;16.73;2.60;;;;;;;;;;6211231;23;20180;-85
2022/10/25 06:52:47;;;;;;;9.27;2.10;;;;;;;;;;6212216;23;20384;-85
2022/10/25 06:55:13;;;;;;;3.07;1.50;;;;;;;;;;6212182;23;20424;-86
2022/10/25 06:57:39;;;;;;;6.63;1.60;;;;;;;;;;6214785;23;20353;-85
2022/10/25 07:00:05;;;;;;;9.03;1.50;;;;;;;;;;6215133;23;20476;-84
2022/10/25 07:02:31;;;;;;;2.70;1.30;;;;;;;;;;6212798;23;20367;-84
2022/10/25 07:04:57;;;;;;;4.60;1.10;;;;;;;;;;6215533;23;20419;-83
2022/10/25 07:07:23;;;;;;;4.20;1.57;;;;;;;;;;6211615;23;20467;-84
2022/10/25 07:09:49;;;;;;;6.40;1.57;;;;;;;;;;6202398;23;20403;-84
2022/10/25 07:12:15;;;;;;;8.20;1.40;;;;;;;;;;6209489;23;20443;-83
2022/10/25 07:14:41;;;;;;;5.00;1.60;;;;;;;;;;6184494;23;20431;-84
2022/10/25 07:17:07;;;;;;;4.83;1.20;;;;;;;;;;6212606;23;20359;-85
2022/10/25 07:19:33;;;;;;;2.33;1.27;;;;;;;;;;6212441;23;20451;-85
2022/10/25 07:21:59;;;;;;;5.57;1.80;;;;;;;;;;6211374;23;20388;-87
2022/10/25 07:24:25;;;;;;;5.27;1.90;;;;;;;;;;6210708;23;20353;-86
2022/10/25 07:26:51;;;;;;;7.70;1.77;;;;;;;;;;6209143;23;20959;-85
2022/10/25 07:29:17;;;;;;;9.00;1.53;;;;;;;;;;6209692;23;20859;-87
2022/10/25 07:31:43;;;;;;;8.97;2.03;;;21.30;99.90;;;;;;6207390;23;20864;-86
2022/10/25 07:34:12;;;;;;;8.27;1.10;;;21.00;99.90;;;;;;6206039;23;20770;-86
2022/10/25 07:36:38;;;;;;;5.47;1.10;;;;;;;;;;6207069;23;20383;-86
2022/10/25 07:39:04;;;;;;;8.03;2.03;;;;;;;;;;6207999;23;20369;-86
2022/10/25 07:41:30;;;;;;;5.43;1.17;;;;;;;;;;6209410;23;20423;-84
2022/10/25 07:43:56;;;;;;;5.37;1.40;;;;;;;;;;6208848;23;20376;-85
2022/10/25 07:46:22;;;;;;;7.27;1.10;;;;;;;;;;6214387;23;21224;-86
2022/10/25 07:48:48;;;;;;;5.60;1.53;;;;;;;;;;6213268;23;20415;-85
2022/10/25 07:51:15;;;;;;;2.40;0.90;;;23.60;99.90;;;;;;6212666;23;20404;-86
2022/10/25 07:53:41;;;;;;;2.57;1.30;;;;;;;;;;6240975;23;20426;-85
2022/10/25 07:56:11;;;;;;;8.57;1.13;;;23.40;99.90;;;;;;6212342;23;20850;-86
2022/10/25 07:58:37;;;;;;;5.63;1.60;;;;;;;;;;6213207;23;20384;-86
2022/10/25 08:01:06;;;;;;;3.77;1.20;;;24.50;99.90;;;;;;6242184;22;20373;-87
2022/10/25 08:03:32;;;;;;;4.50;1.70;;;;;;;;;;6215665;23;20446;-86
2022/10/25 08:05:58;;;;;;;4.27;1.23;;;24.10;99.90;;;;;;6215937;23;20455;-84
2022/10/25 08:08:24;;;;;;;7.77;1.33;;;23.40;99.90;;;;;;6242242;23;20381;-87
2022/10/25 08:10:51;;;;;;;4.57;1.93;;;;;;;;;;6216445;23;20407;-87
2022/10/25 08:13:17;;;;;;;6.53;1.77;;;;;;;;;;6215566;23;20445;-87
2022/10/25 08:15:52;;;;;;;6.10;1.60;;;22.70;99.90;;;;;;6210891;23;20411;-87
2022/10/25 08:18:18;;;;;;;8.90;1.40;;;;;;;;;;6214282;23;20412;-84
2022/10/25 08:20:44;;;;;;;4.33;1.03;;;23.80;99.90;;;;;;6216402;23;20393;-86
2022/10/25 08:23:10;;;;;;;10.13;1.80;;;24.30;99.90;;;;;;6213120;23;20375;-87
2022/10/25 08:25:36;;;;;;;3.60;1.20;;;;;;;;;;6208823;23;20616;-84
2022/10/25 08:28:02;;;;;;;6.53;1.60;;;;;;;;;;6242023;23;20530;-86
2022/10/25 08:30:28;;;;;;;2.97;1.07;;;;;;;;;;6211541;23;20396;-85
2022/10/25 08:32:54;;;;;;;2.77;0.70;;;;;;;;;;6215196;23;20386;-85
2022/10/25 08:35:19;;;;;;;8.30;1.27;;;;;;;;;;6212893;23;20524;-86
2022/10/25 08:37:45;;;;;;;6.73;1.57;;;;;;;;;;6243801;23;21314;-87
2022/10/25 08:40:18;;;;;;;4.27;1.63;;;26.10;99.90;;;;;;6240519;22;20603;-85
2022/10/25 08:43:00;;;;;;;3.77;1.40;;;25.10;99.90;;;;;;6239084;23;20374;-86
2022/10/25 08:45:38;;;;;;;4.20;1.10;;;22.20;99.90;;;;;;6213425;22;20491;-87
2022/10/25 08:48:10;;;;;;;4.83;1.37;;;20.10;99.90;;;;;;6236924;23;20391;-87
2022/10/25 08:50:36;;;;;;;2.90;1.00;;;;;;;;;;6211114;23;20371;-86
2022/10/25 08:53:07;;;;;;;7.83;1.33;;;19.60;99.90;;;;;;6211799;23;20429;-86
2022/10/25 08:55:39;;;;;;;3.80;1.20;;;21.30;99.90;;;;;;6218705;22;20430;-87
2022/10/25 08:58:30;;;;;;;3.47;1.10;;;20.80;99.90;;;;;;6239221;22;20393;-86
2022/10/25 09:00:58;;;;;;;7.93;1.27;;;20.20;99.90;;;;;;6233409;22;20450;-86
2022/10/25 09:03:25;;;;;;;6.07;1.20;;;19.70;99.90;;;;;;6270422;22;20371;-86
2022/10/25 09:06:15;;;;;;;5.63;1.40;;;18.20;99.90;;;;;;6240672;22;20449;-86
2022/10/25 09:08:56;;;;;;;4.47;1.13;;;18.50;99.90;;;;;;6238140;22;20908;-86
2022/10/25 09:11:22;;;;;;;5.20;0.90;;;18.40;99.90;;;;;;6271098;22;20396;-87
2022/10/25 09:13:50;;;;;;;5.30;1.17;;;20.10;99.90;;;;;;6270090;22;20415;-86
2022/10/25 09:16:16;;;;;;;7.60;1.27;;;;;;;;;;6243981;22;20172;-87
2022/10/25 09:18:51;;;;;;;4.70;1.37;;;20.60;99.90;;;;;;6240324;22;20388;-86
2022/10/25 09:21:57;;;;;;;4.33;1.00;;;20.90;99.90;;;;;;6242603;22;20413;-86
2022/10/25 09:24:36;;;;;;;4.70;1.60;;;21.20;99.90;;;;;;6245710;22;20390;-86
2022/10/25 09:27:24;;;;;;;6.13;1.50;;;22.50;99.90;;;;;;6238541;22;20920;-87
2022/10/25 09:29:57;;;;;;;7.53;1.37;;;21.40;99.90;;;;;;6267750;22;20378;-86
2022/10/25 09:32:39;;;;;;;5.53;1.83;;;21.20;99.90;;;;;;6244257;22;20412;-87
2022/10/25 09:35:14;;;;;;;4.50;1.53;;;20.20;99.90;;;;;;6270654;22;20414;-87
2022/10/25 09:37:54;;;;;;;5.30;0.93;;;19.80;99.90;;;;;;6241104;22;20431;-86
2022/10/25 09:40:28;;;;;;;3.60;1.47;;;19.00;99.90;;;;;;6270287;22;20377;-86
2022/10/25 09:42:57;;;;;;;4.93;1.30;;;18.90;99.90;;;;;;6269989;22;20398;-87
2022/10/25 09:45:49;;;;;;;3.30;1.43;;;18.60;99.90;;;;;;6244836;22;20426;-87
2022/10/25 09:48:20;;;;;;;7.07;1.43;;;18.80;99.90;;;;;;6269639;22;20382;-87
2022/10/25 09:50:54;;;;;;;4.20;1.23;;;18.40;99.90;;;;;;6268162;22;20445;-86
2022/10/25 09:53:19;;;;;;;4.37;1.60;;;18.40;99.90;;;;;;6271770;22;20396;-86
2022/10/25 09:56:00;;;;;;;2.40;1.17;;;18.30;99.90;;;;;;6267716;22;20844;-86
2022/10/25 09:58:30;;;;;;;6.47;1.30;;;17.60;99.90;;;;;;6267269;22;20152;-86
2022/10/25 10:01:06;;;;;;;7.63;2.27;;;17.70;99.90;;;;;;6270655;22;20370;-86
2022/10/25 10:03:34;;;;;;;7.63;1.70;;;17.40;99.90;;;;;;6265716;22;20354;-86
2022/10/25 10:06:15;;;;;;;4.00;1.27;;;17.10;99.90;;;;;;6265049;22;20860;-86
2022/10/25 10:08:48;;;;;;;7.27;2.23;;;17.10;99.90;;;;;;6265944;22;20366;-86
2022/10/25 10:11:16;;;;;;;4.73;1.43;;;16.90;99.90;;;;;;6270002;22;20385;-87
2022/10/25 10:13:54;;;;;;;8.93;2.00;;;17.00;99.90;;;;;;6266735;22;20382;-86
2022/10/25 10:16:25;;;;;;;9.10;2.03;;;17.00;99.90;;;;;;6266177;22;20922;-86
2022/10/25 10:19:11;;;;;;;5.63;2.10;;;16.90;99.90;;;;;;6268055;22;20837;-86
2022/10/25 10:21:43;;;;;;;10.27;2.30;;;16.80;99.90;;;;;;6268996;22;20403;-86
2022/10/25 10:24:22;;;;;;;6.03;1.87;;;17.00;99.90;;;;;;6265623;22;20812;-86
2022/10/25 10:26:54;;;;;;;7.50;1.87;;;17.20;99.90;;;;;;6264588;22;20506;-87
2022/10/25 10:29:22;;;;;;;7.60;2.07;;;17.20;99.90;;;;;;6268585;22;20722;-86
2022/10/25 10:31:50;;;;;;;5.47;1.63;;;17.00;99.90;;;;;;6270977;22;20378;-86
2022/10/25 10:34:24;;;;;;;6.00;1.73;;;16.50;99.90;;;;;;6270441;22;20479;-87
2022/10/25 10:37:23;;;;;;;5.47;1.50;;;16.80;99.90;;;;;;6271251;22;20387;-86
2022/10/25 10:39:51;;;;;;;8.40;2.57;;;16.60;99.90;;;;;;6247587;22;20952;-87
2022/10/25 10:42:19;;;;;;;6.97;2.00;;;16.80;99.90;;;;;;6270465;22;20410;-86
2022/10/25 10:45:06;;;;;;;9.07;2.17;;;17.10;99.90;;;;;;6270494;22;20386;-87
2022/10/25 10:47:36;;;;;;;8.30;2.10;;;17.40;99.90;;;;;;6273541;22;20376;-86
2022/10/25 10:50:19;;;;;;;2.83;1.57;;;18.00;99.90;;;;;;6272516;22;20871;-86
2022/10/25 10:52:47;;;;;;;4.37;1.10;;;18.50;99.90;;;;;;6273044;22;20415;-87
2022/10/25 10:55:18;;;;;;;4.73;2.00;;;18.80;99.90;;;;;;6271824;22;20437;-87
2022/10/25 10:57:44;;;;;;;10.23;1.40;;;;;;;;;;6276787;22;20378;-86
2022/10/25 11:00:21;;;;;;;7.30;1.47;;;19.20;99.90;;;;;;6271219;22;20379;-86
2022/10/25 11:02:48;;;;;;;6.80;1.93;;;;;;;;;;6276026;22;20358;-86
2022/10/25 11:05:23;;;;;;;3.80;1.37;;;19.30;99.90;;;;;;6274796;22;20436;-87
2022/10/25 11:07:59;;;;;;;7.60;2.67;;;19.50;99.90;;;;;;6274261;22;20417;-86
2022/10/25 11:10:38;;;;;;;3.47;1.87;;;19.30;99.90;;;;;;6266260;22;20541;-87
2022/10/25 11:13:16;;;;;;;6.60;2.00;;;19.50;99.90;;;;;;6269520;22;20709;-86
2022/10/25 11:16:08;;;;;;;4.37;1.33;;;19.70;99.90;;;;;;6267198;22;20450;-86
2022/10/25 11:18:39;;;;;;;3.40;1.37;;;20.00;99.90;;;;;;6269220;22;20497;-86
2022/10/25 11:21:26;;;;;;;8.80;1.60;;;20.20;99.90;;;;;;6264602;22;20374;-87
2022/10/25 11:24:05;;;;;;;4.43;1.40;;;20.50;99.90;;;;;;6266693;22;20367;-85
2022/10/25 11:26:53;;;;;;;11.47;1.67;;;20.40;99.90;;;;;;6271223;22;20892;-86
2022/10/25 11:29:41;;;;;;;4.90;1.50;;;20.00;99.90;;;;;;6269377;22;20363;-87
2022/10/25 11:32:26;;;;;;;3.23;1.13;;;19.80;99.90;;;;;;6273554;22;20374;-86
2022/10/25 11:34:52;;;;;;;4.50;1.27;;;;;;;;;;6264933;22;20414;-86
2022/10/25 11:37:41;;;;;;;5.33;1.40;;;20.10;99.90;;;;;;6267258;22;20420;-87
2022/10/25 11:40:27;;;;;;;3.93;1.63;;;20.20;99.90;;;;;;6267325;22;20366;-87
2022/10/25 11:43:24;;;;;;;5.27;1.40;;;20.30;99.90;;;;;;6265206;22;20372;-86
2022/10/25 11:46:23;;;;;;;4.53;1.97;;;20.00;99.90;;;;;;6249712;22;20450;-87
2022/10/25 11:49:25;;;;;;;8.30;1.87;;;19.30;99.90;;;;;;6269435;22;20382;-86
2022/10/25 11:51:57;;;;;;;10.27;1.53;;;19.90;99.90;;;;;;6267950;22;20389;-87
2022/10/25 11:55:05;;;;;;;4.13;1.70;;;19.50;99.90;;;;;;6268279;22;20412;-87
2022/10/25 11:57:52;;;;;;;4.73;1.80;;;19.90;99.90;;;;;;6270512;22;20382;-87
2022/10/25 12:00:21;;;;;;;4.27;1.30;;;19.60;99.90;;;;;;6268188;22;20394;-87
2022/10/25 12:03:13;;;;;;;4.47;1.77;;;19.50;99.90;;;;;;6270489;22;20380;-87
2022/10/25 12:06:00;;;;;;;4.47;1.17;;;19.70;99.90;;;;;;6267948;22;20517;-86
2022/10/25 12:08:27;;;;;;;10.10;1.40;;;;;;;;;;6268263;22;20379;-87
2022/10/25 12:11:00;;;;;;;5.17;1.30;;;19.90;99.90;;;;;;6265162;22;20384;-87
2022/10/25 12:13:31;;;;;;;2.23;1.30;;;19.30;99.90;;;;;;6271137;22;20355;-86
2022/10/25 12:15:58;;;;;;;3.63;1.50;;;19.50;99.90;;;;;;6266239;22;20492;-87
2022/10/25 12:19:07;;;;;;;4.30;1.47;;;19.60;99.90;;;;;;6268837;22;20868;-87
2022/10/25 12:21:53;;;;;;;8.00;1.60;;;20.10;99.90;;;;;;6265231;22;20390;-87
2022/10/25 12:24:22;;;;;;;4.73;1.43;;;19.90;99.90;;;;;;6267656;22;20355;-87
2022/10/25 12:26:51;;;;;;;8.63;1.37;;;19.90;99.90;;;;;;6266717;22;20421;-86
2022/10/25 12:29:22;;;;;;;5.83;1.50;;;19.90;99.90;;;;;;6263584;22;20389;-87
2022/10/25 12:31:55;;;;;;;4.67;1.30;;;19.70;99.90;;;;;;6267831;22;20361;-88
2022/10/25 12:34:21;;;;;;;4.93;1.83;;;;;;;;;;6269463;22;20402;-86
2022/10/25 12:36:55;;;;;;;6.43;1.20;;;19.20;99.90;;;;;;6268323;22;20393;-86
2022/10/25 12:39:32;;;;;;;9.50;1.47;;;19.40;99.90;;;;;;6265741;22;20466;-87
2022/10/25 12:42:08;;;;;;;5.00;1.60;;;19.20;99.90;;;;;;6269096;22;20726;-87
2022/10/25 12:45:07;;;;;;;3.33;1.30;;;19.20;99.90;;;;;;6269529;22;20872;-87
2022/10/25 12:47:33;;;;;;;5.70;1.43;;;;;;;;;;6267184;22;20414;-86
2022/10/25 12:50:30;;;;;;;6.20;1.20;;;19.10;99.90;;;;;;6266373;22;20371;-86
2022/10/25 12:53:20;;;;;;;4.40;1.20;;;19.40;99.90;;;;;;6249524;22;20389;-87
2022/10/25 12:56:07;;;;;;;8.60;2.30;;;19.20;99.90;;;;;;6265866;22;20947;-86
2022/10/25 12:58:57;;;;;;;5.77;1.33;;;19.30;99.90;;;;;;6267914;22;20702;-87
2022/10/25 13:01:34;;;;;;;5.23;1.33;;;19.10;99.90;;;;;;6265997;22;20374;-86
2022/10/25 13:04:30;;;;;;;2.30;1.07;;;19.10;99.90;;;;;;6264259;22;20840;-86
2022/10/25 13:06:57;;;;;;;4.53;1.20;;;19.20;99.90;;;;;;6269666;22;20512;-86
2022/10/25 13:09:23;;;;;;;4.67;1.60;;;;;;;;;;6262339;22;20386;-87
2022/10/25 13:12:01;;;;;;;8.27;1.70;;;19.20;99.90;;;;;;6263689;22;20456;-87
2022/10/25 13:14:43;;;;;;;4.20;1.10;;;18.90;99.90;;;;;;6266698;22;20417;-87
2022/10/25 13:17:17;;;;;;;5.10;1.50;;;19.10;99.90;;;;;;6265790;22;20409;-87
2022/10/25 13:20:07;;;;;;;3.50;1.07;;;19.20;99.90;;;;;;6263642;22;20362;-87
2022/10/25 13:22:37;;;;;;;6.37;1.60;;;19.00;99.90;;;;;;6250170;22;20440;-86
2022/10/25 13:25:29;;;;;;;4.83;1.40;;;19.10;99.90;;;;;;6262956;22;20379;-86
2022/10/25 13:28:12;;;;;;;6.97;1.80;;;19.00;99.90;;;;;;6250270;22;20889;-86
2022/10/25 13:30:38;;;;;;;5.20;1.33;;;;;;;;;;6265692;22;20370;-87
2022/10/25 13:33:23;;;;;;;4.43;1.30;;;19.10;99.90;;;;;;6272904;22;20995;-87
2022/10/25 13:35:49;;;;;;;11.50;1.80;;;;;;;;;;6269160;22;20484;-87
2022/10/25 13:38:46;;;;;;;5.13;1.10;;;19.10;99.90;;;;;;6273539;22;20393;-86
2022/10/25 13:41:18;;;;;;;3.17;1.20;;;19.10;99.90;;;;;;6266227;22;20378;-87
2022/10/25 13:44:03;;;;;;;4.43;1.27;;;19.00;99.90;;;;;;6269832;22;20381;-86
2022/10/25 13:46:36;;;;;;;1.73;0.93;;;19.00;99.90;;;;;;6272215;22;20441;-87
2022/10/25 13:49:21;;;;;;;3.13;1.50;;;18.90;99.90;;;;;;6266240;22;20393;-86
2022/10/25 13:51:47;;;;;;;6.97;1.83;;;;;;;;;;6273611;22;20359;-87
2022/10/25 13:54:13;;;;;;;8.03;1.23;;;;;;;;;;6267421;22;20573;-86
2022/10/25 13:56:52;;;;;;;5.20;1.43;;;18.60;99.90;;;;;;6270886;22;20713;-86
2022/10/25 13:59:36;;;;;;;6.13;1.27;;;18.30;99.90;;;;;;6271174;22;20445;-87
2022/10/25 14:02:22;;;;;;;4.87;1.60;;;18.60;99.90;;;;;;6269957;22;20901;-87
2022/10/25 14:04:48;;;;;;;5.83;1.17;;;;;;;;;;6270147;22;20386;-86